sensor_id;sensor_type;location;lat;lon;timestamp;temperature;humidity
56103;DHT22;41970;48.774;9.280;2023-02-28T00:01:10;0.60;88.10
56103;DHT22;41970;48.774;9.280;2023-02-28T00:03:36;0.60;89.30
56103;DHT22;41970;48.774;9.280;2023-02-28T00:06:06;0.60;89.90
56103;DHT22;41970;48.774;9.280;2023-02-28T00:08:32;0.60;88.20
56103;DHT22;41970;48.774;9.280;2023-02-28T00:11:06;0.50;88.80
56103;DHT22;41970;48.774;9.280;2023-02-28T00:13:34;0.40;88.40
56103;DHT22;41970;48.774;9.280;2023-02-28T00:16:07;0.40;89.50
56103;DHT22;41970;48.774;9.280;2023-02-28T00:18:33;0.40;89.50
56103;DHT22;41970;48.774;9.280;2023-02-28T00:20:59;0.40;89.70
56103;DHT22;41970;48.774;9.280;2023-02-28T00:23:26;0.50;89.60
56103;DHT22;41970;48.774;9.280;2023-02-28T00:25:52;0.50;88.70
56103;DHT22;41970;48.774;9.280;2023-02-28T00:28:18;0.50;89.60
56103;DHT22;41970;48.774;9.280;2023-02-28T00:30:44;0.50;88.90
56103;DHT22;41970;48.774;9.280;2023-02-28T00:33:10;0.50;89.20
56103;DHT22;41970;48.774;9.280;2023-02-28T00:35:38;0.60;89.00
56103;DHT22;41970;48.774;9.280;2023-02-28T00:38:04;0.60;88.80
56103;DHT22;41970;48.774;9.280;2023-02-28T00:40:31;0.50;89.90
56103;DHT22;41970;48.774;9.280;2023-02-28T00:42:57;0.40;89.30
56103;DHT22;41970;48.774;9.280;2023-02-28T00:45:23;0.40;88.90
56103;DHT22;41970;48.774;9.280;2023-02-28T00:47:48;0.40;90.50
56103;DHT22;41970;48.774;9.280;2023-02-28T00:50:19;0.30;90.10
56103;DHT22;41970;48.774;9.280;2023-02-28T00:52:46;0.20;90.20
56103;DHT22;41970;48.774;9.280;2023-02-28T00:55:12;0.20;90.80
56103;DHT22;41970;48.774;9.280;2023-02-28T00:57:38;0.20;90.50
56103;DHT22;41970;48.774;9.280;2023-02-28T01:00:04;0.30;90.80
56103;DHT22;41970;48.774;9.280;2023-02-28T01:02:30;0.20;90.80
56103;DHT22;41970;48.774;9.280;2023-02-28T01:04:56;0.20;90.70
56103;DHT22;41970;48.774;9.280;2023-02-28T01:07:23;0.20;91.10
56103;DHT22;41970;48.774;9.280;2023-02-28T01:09:49;0.10;91.90
56103;DHT22;41970;48.774;9.280;2023-02-28T01:12:15;0.10;92.00
56103;DHT22;41970;48.774;9.280;2023-02-28T01:14:41;0.20;91.20
56103;DHT22;41970;48.774;9.280;2023-02-28T01:17:08;0.20;91.30
56103;DHT22;41970;48.774;9.280;2023-02-28T01:19:33;0.10;92.40
56103;DHT22;41970;48.774;9.280;2023-02-28T01:22:04;0.10;91.70
56103;DHT22;41970;48.774;9.280;2023-02-28T01:24:30;0.10;92.30
56103;DHT22;41970;48.774;9.280;2023-02-28T01:26:56;0.00;92.40
56103;DHT22;41970;48.774;9.280;2023-02-28T01:29:22;0.10;92.10
56103;DHT22;41970;48.774;9.280;2023-02-28T01:31:48;0.10;92.00
56103;DHT22;41970;48.774;9.280;2023-02-28T01:34:13;0.10;92.20
56103;DHT22;41970;48.774;9.280;2023-02-28T01:36:39;0.10;92.40
56103;DHT22;41970;48.774;9.280;2023-02-28T01:39:05;0.20;92.60
56103;DHT22;41970;48.774;9.280;2023-02-28T01:41:33;0.20;92.80
56103;DHT22;41970;48.774;9.280;2023-02-28T01:44:06;0.20;92.60
56103;DHT22;41970;48.774;9.280;2023-02-28T01:46:34;0.20;92.50
56103;DHT22;41970;48.774;9.280;2023-02-28T01:49:05;0.20;92.80
56103;DHT22;41970;48.774;9.280;2023-02-28T01:54:09;0.10;92.40
56103;DHT22;41970;48.774;9.280;2023-02-28T01:56:42;0.10;93.10
56103;DHT22;41970;48.774;9.280;2023-02-28T01:59:09;0.10;93.20
56103;DHT22;41970;48.774;9.280;2023-02-28T02:01:35;0.10;93.10
56103;DHT22;41970;48.774;9.280;2023-02-28T02:04:02;0.20;93.00
56103;DHT22;41970;48.774;9.280;2023-02-28T02:06:41;0.20;92.90
56103;DHT22;41970;48.774;9.280;2023-02-28T02:09:08;0.30;93.00
56103;DHT22;41970;48.774;9.280;2023-02-28T02:11:34;0.30;93.20
56103;DHT22;41970;48.774;9.280;2023-02-28T02:25:19;0.20;94.40
56103;DHT22;41970;48.774;9.280;2023-02-28T02:41:06;0.40;93.80
56103;DHT22;41970;48.774;9.280;2023-02-28T02:43:47;0.40;93.70
56103;DHT22;41970;48.774;9.280;2023-02-28T02:46:27;0.30;93.80
56103;DHT22;41970;48.774;9.280;2023-02-28T02:48:56;0.30;93.80
56103;DHT22;41970;48.774;9.280;2023-02-28T02:51:24;0.30;94.10
56103;DHT22;41970;48.774;9.280;2023-02-28T02:53:54;0.40;94.00
56103;DHT22;41970;48.774;9.280;2023-02-28T02:56:25;0.40;94.30
56103;DHT22;41970;48.774;9.280;2023-02-28T02:58:54;0.40;94.20
56103;DHT22;41970;48.774;9.280;2023-02-28T03:01:23;0.50;94.30
56103;DHT22;41970;48.774;9.280;2023-02-28T03:04:09;0.60;94.50
56103;DHT22;41970;48.774;9.280;2023-02-28T03:06:36;0.60;94.30
56103;DHT22;41970;48.774;9.280;2023-02-28T03:09:02;0.40;93.90
56103;DHT22;41970;48.774;9.280;2023-02-28T03:11:29;0.40;94.30
56103;DHT22;41970;48.774;9.280;2023-02-28T03:14:01;0.30;94.70
56103;DHT22;41970;48.774;9.280;2023-02-28T03:19:28;0.30;94.70
56103;DHT22;41970;48.774;9.280;2023-02-28T03:22:45;0.30;95.10
56103;DHT22;41970;48.774;9.280;2023-02-28T03:28:02;0.40;95.50
56103;DHT22;41970;48.774;9.280;2023-02-28T03:30:49;0.50;95.30
56103;DHT22;41970;48.774;9.280;2023-02-28T03:33:30;0.50;95.30
56103;DHT22;41970;48.774;9.280;2023-02-28T03:36:06;0.30;95.60
56103;DHT22;41970;48.774;9.280;2023-02-28T03:38:38;0.40;95.90
56103;DHT22;41970;48.774;9.280;2023-02-28T03:41:14;0.40;96.40
56103;DHT22;41970;48.774;9.280;2023-02-28T03:43:45;0.40;96.50
56103;DHT22;41970;48.774;9.280;2023-02-28T03:46:17;0.40;95.80
56103;DHT22;41970;48.774;9.280;2023-02-28T03:48:56;0.40;97.30
56103;DHT22;41970;48.774;9.280;2023-02-28T03:51:24;0.50;96.80
56103;DHT22;41970;48.774;9.280;2023-02-28T03:53:56;0.50;96.90
56103;DHT22;41970;48.774;9.280;2023-02-28T03:56:33;0.60;96.00
56103;DHT22;41970;48.774;9.280;2023-02-28T04:01:37;0.50;96.50
56103;DHT22;41970;48.774;9.280;2023-02-28T04:04:04;0.50;96.20
56103;DHT22;41970;48.774;9.280;2023-02-28T04:06:32;0.50;95.90
56103;DHT22;41970;48.774;9.280;2023-02-28T04:08:58;0.50;96.60
56103;DHT22;41970;48.774;9.280;2023-02-28T04:13:56;0.60;96.90
56103;DHT22;41970;48.774;9.280;2023-02-28T04:16:22;0.60;96.50
56103;DHT22;41970;48.774;9.280;2023-02-28T04:18:48;0.60;96.10
56103;DHT22;41970;48.774;9.280;2023-02-28T04:21:13;0.50;96.50
56103;DHT22;41970;48.774;9.280;2023-02-28T04:23:39;0.50;96.90
56103;DHT22;41970;48.774;9.280;2023-02-28T04:26:05;0.40;96.80
56103;DHT22;41970;48.774;9.280;2023-02-28T04:28:32;0.50;96.90
56103;DHT22;41970;48.774;9.280;2023-02-28T04:31:02;0.50;97.30
56103;DHT22;41970;48.774;9.280;2023-02-28T04:33:31;0.60;97.50
56103;DHT22;41970;48.774;9.280;2023-02-28T04:36:06;0.50;97.10
56103;DHT22;41970;48.774;9.280;2023-02-28T04:38:38;0.60;96.80
56103;DHT22;41970;48.774;9.280;2023-02-28T04:41:04;0.60;96.80
56103;DHT22;41970;48.774;9.280;2023-02-28T04:43:31;0.60;97.20
56103;DHT22;41970;48.774;9.280;2023-02-28T04:46:00;0.70;97.40
56103;DHT22;41970;48.774;9.280;2023-02-28T04:48:31;0.70;97.10
56103;DHT22;41970;48.774;9.280;2023-02-28T04:51:02;0.70;97.30
56103;DHT22;41970;48.774;9.280;2023-02-28T04:53:29;0.80;97.00
56103;DHT22;41970;48.774;9.280;2023-02-28T04:55:56;0.60;96.50
56103;DHT22;41970;48.774;9.280;2023-02-28T04:58:22;0.50;96.80
56103;DHT22;41970;48.774;9.280;2023-02-28T05:00:53;0.40;97.50
56103;DHT22;41970;48.774;9.280;2023-02-28T05:03:19;0.40;97.70
56103;DHT22;41970;48.774;9.280;2023-02-28T05:05:46;0.40;97.60
56103;DHT22;41970;48.774;9.280;2023-02-28T05:08:12;0.50;97.90
56103;DHT22;41970;48.774;9.280;2023-02-28T05:10:38;0.60;98.50
56103;DHT22;41970;48.774;9.280;2023-02-28T05:13:04;0.60;97.30
56103;DHT22;41970;48.774;9.280;2023-02-28T05:15:30;0.60;97.50
56103;DHT22;41970;48.774;9.280;2023-02-28T05:17:55;0.40;97.10
56103;DHT22;41970;48.774;9.280;2023-02-28T05:20:21;0.40;97.70
56103;DHT22;41970;48.774;9.280;2023-02-28T05:22:47;0.30;97.60
56103;DHT22;41970;48.774;9.280;2023-02-28T05:25:18;0.20;97.90
56103;DHT22;41970;48.774;9.280;2023-02-28T05:27:44;0.10;98.00
56103;DHT22;41970;48.774;9.280;2023-02-28T05:30:11;0.30;98.40
56103;DHT22;41970;48.774;9.280;2023-02-28T05:32:37;0.40;98.50
56103;DHT22;41970;48.774;9.280;2023-02-28T05:35:04;0.10;97.90
56103;DHT22;41970;48.774;9.280;2023-02-28T05:37:30;0.00;98.30
56103;DHT22;41970;48.774;9.280;2023-02-28T05:39:56;0.00;98.90
56103;DHT22;41970;48.774;9.280;2023-02-28T05:42:22;0.20;99.20
56103;DHT22;41970;48.774;9.280;2023-02-28T05:44:48;0.10;98.80
56103;DHT22;41970;48.774;9.280;2023-02-28T05:47:13;0.20;98.90
56103;DHT22;41970;48.774;9.280;2023-02-28T05:49:41;0.30;99.10
56103;DHT22;41970;48.774;9.280;2023-02-28T05:52:07;0.40;99.00
56103;DHT22;41970;48.774;9.280;2023-02-28T05:54:33;0.50;99.40
56103;DHT22;41970;48.774;9.280;2023-02-28T05:56:59;0.60;98.90
56103;DHT22;41970;48.774;9.280;2023-02-28T05:59:24;0.50;98.20
56103;DHT22;41970;48.774;9.280;2023-02-28T06:01:50;0.60;98.20
56103;DHT22;41970;48.774;9.280;2023-02-28T06:04:18;0.60;98.30
56103;DHT22;41970;48.774;9.280;2023-02-28T06:06:48;0.60;98.30
56103;DHT22;41970;48.774;9.280;2023-02-28T06:09:15;0.50;99.00
56103;DHT22;41970;48.774;9.280;2023-02-28T06:11:41;0.60;98.70
56103;DHT22;41970;48.774;9.280;2023-02-28T06:14:09;0.60;99.10
56103;DHT22;41970;48.774;9.280;2023-02-28T06:16:38;0.50;98.30
56103;DHT22;41970;48.774;9.280;2023-02-28T06:19:04;0.50;98.90
56103;DHT22;41970;48.774;9.280;2023-02-28T06:21:30;0.60;99.40
56103;DHT22;41970;48.774;9.280;2023-02-28T06:23:57;0.60;99.90
56103;DHT22;41970;48.774;9.280;2023-02-28T06:26:23;0.70;99.80
56103;DHT22;41970;48.774;9.280;2023-02-28T06:28:49;0.70;99.50
56103;DHT22;41970;48.774;9.280;2023-02-28T06:31:16;0.70;99.00
56103;DHT22;41970;48.774;9.280;2023-02-28T06:33:43;0.80;99.20
56103;DHT22;41970;48.774;9.280;2023-02-28T06:36:11;0.80;98.70
56103;DHT22;41970;48.774;9.280;2023-02-28T06:38:38;0.60;98.80
56103;DHT22;41970;48.774;9.280;2023-02-28T06:41:04;0.60;99.40
56103;DHT22;41970;48.774;9.280;2023-02-28T06:43:34;0.70;99.60
56103;DHT22;41970;48.774;9.280;2023-02-28T06:46:02;0.70;98.90
56103;DHT22;41970;48.774;9.280;2023-02-28T06:48:28;0.60;98.20
56103;DHT22;41970;48.774;9.280;2023-02-28T06:51:05;0.60;98.30
56103;DHT22;41970;48.774;9.280;2023-02-28T06:53:32;0.60;98.20
56103;DHT22;41970;48.774;9.280;2023-02-28T06:55:57;0.50;98.40
56103;DHT22;41970;48.774;9.280;2023-02-28T06:58:23;0.30;97.70
56103;DHT22;41970;48.774;9.280;2023-02-28T07:00:51;0.20;98.20
56103;DHT22;41970;48.774;9.280;2023-02-28T07:03:18;0.30;99.10
56103;DHT22;41970;48.774;9.280;2023-02-28T07:05:44;0.40;99.20
56103;DHT22;41970;48.774;9.280;2023-02-28T07:08:10;0.50;98.80
56103;DHT22;41970;48.774;9.280;2023-02-28T07:10:40;0.70;98.50
56103;DHT22;41970;48.774;9.280;2023-02-28T07:13:08;0.90;98.20
56103;DHT22;41970;48.774;9.280;2023-02-28T07:15:35;1.00;98.50
56103;DHT22;41970;48.774;9.280;2023-02-28T07:18:01;0.80;97.10
56103;DHT22;41970;48.774;9.280;2023-02-28T07:20:26;0.70;97.50
56103;DHT22;41970;48.774;9.280;2023-02-28T07:22:52;0.80;98.80
56103;DHT22;41970;48.774;9.280;2023-02-28T07:25:26;0.90;98.90
56103;DHT22;41970;48.774;9.280;2023-02-28T07:27:53;0.70;97.40
56103;DHT22;41970;48.774;9.280;2023-02-28T07:30:19;0.70;98.20
56103;DHT22;41970;48.774;9.280;2023-02-28T07:32:45;0.80;98.80
56103;DHT22;41970;48.774;9.280;2023-02-28T07:35:11;0.90;98.20
56103;DHT22;41970;48.774;9.280;2023-02-28T07:37:37;1.00;98.90
56103;DHT22;41970;48.774;9.280;2023-02-28T07:40:04;1.10;98.40
56103;DHT22;41970;48.774;9.280;2023-02-28T07:42:37;1.20;97.80
56103;DHT22;41970;48.774;9.280;2023-02-28T07:45:04;1.20;97.70
56103;DHT22;41970;48.774;9.280;2023-02-28T07:47:30;1.20;98.60
56103;DHT22;41970;48.774;9.280;2023-02-28T07:49:57;1.10;98.10
56103;DHT22;41970;48.774;9.280;2023-02-28T07:52:23;0.90;97.10
56103;DHT22;41970;48.774;9.280;2023-02-28T07:54:50;0.80;98.00
56103;DHT22;41970;48.774;9.280;2023-02-28T07:57:15;0.80;97.50
56103;DHT22;41970;48.774;9.280;2023-02-28T07:59:42;0.90;98.10
56103;DHT22;41970;48.774;9.280;2023-02-28T08:02:13;0.90;97.80
56103;DHT22;41970;48.774;9.280;2023-02-28T08:04:39;0.90;98.20
56103;DHT22;41970;48.774;9.280;2023-02-28T08:07:05;1.00;98.90
56103;DHT22;41970;48.774;9.280;2023-02-28T08:09:30;1.10;98.90
56103;DHT22;41970;48.774;9.280;2023-02-28T08:11:56;1.10;98.90
56103;DHT22;41970;48.774;9.280;2023-02-28T08:14:22;1.10;98.00
56103;DHT22;41970;48.774;9.280;2023-02-28T08:16:48;1.20;98.50
56103;DHT22;41970;48.774;9.280;2023-02-28T08:19:14;1.10;97.90
56103;DHT22;41970;48.774;9.280;2023-02-28T08:21:40;1.00;97.10
56103;DHT22;41970;48.774;9.280;2023-02-28T08:24:06;1.00;98.40
56103;DHT22;41970;48.774;9.280;2023-02-28T08:26:32;1.00;98.00
56103;DHT22;41970;48.774;9.280;2023-02-28T08:28:57;0.60;97.10
56103;DHT22;41970;48.774;9.280;2023-02-28T08:31:23;0.40;97.80
56103;DHT22;41970;48.774;9.280;2023-02-28T08:33:49;0.50;98.60
56103;DHT22;41970;48.774;9.280;2023-02-28T08:36:18;0.70;98.50
56103;DHT22;41970;48.774;9.280;2023-02-28T08:38:44;0.80;99.10
56103;DHT22;41970;48.774;9.280;2023-02-28T08:41:11;0.90;98.40
56103;DHT22;41970;48.774;9.280;2023-02-28T08:43:39;1.10;98.70
56103;DHT22;41970;48.774;9.280;2023-02-28T08:46:05;1.20;98.80
56103;DHT22;41970;48.774;9.280;2023-02-28T08:48:32;1.20;98.00
56103;DHT22;41970;48.774;9.280;2023-02-28T08:51:03;1.20;98.10
56103;DHT22;41970;48.774;9.280;2023-02-28T08:53:30;1.30;98.40
56103;DHT22;41970;48.774;9.280;2023-02-28T08:56:08;1.30;98.20
56103;DHT22;41970;48.774;9.280;2023-02-28T08:58:34;1.40;97.90
56103;DHT22;41970;48.774;9.280;2023-02-28T09:01:06;1.10;96.70
56103;DHT22;41970;48.774;9.280;2023-02-28T09:03:32;0.70;97.20
56103;DHT22;41970;48.774;9.280;2023-02-28T09:05:59;0.80;97.50
56103;DHT22;41970;48.774;9.280;2023-02-28T09:08:27;0.90;98.10
56103;DHT22;41970;48.774;9.280;2023-02-28T09:10:53;1.00;98.30
56103;DHT22;41970;48.774;9.280;2023-02-28T09:13:20;1.20;98.50
56103;DHT22;41970;48.774;9.280;2023-02-28T09:15:46;1.30;98.30
56103;DHT22;41970;48.774;9.280;2023-02-28T09:18:12;1.30;97.00
56103;DHT22;41970;48.774;9.280;2023-02-28T09:20:39;0.90;96.90
56103;DHT22;41970;48.774;9.280;2023-02-28T09:23:06;0.70;97.20
56103;DHT22;41970;48.774;9.280;2023-02-28T09:25:32;0.50;97.30
56103;DHT22;41970;48.774;9.280;2023-02-28T09:27:58;0.50;98.00
56103;DHT22;41970;48.774;9.280;2023-02-28T09:30:24;0.70;98.90
56103;DHT22;41970;48.774;9.280;2023-02-28T09:32:50;1.00;98.70
56103;DHT22;41970;48.774;9.280;2023-02-28T09:35:23;1.20;98.30
56103;DHT22;41970;48.774;9.280;2023-02-28T09:37:50;1.20;96.80
56103;DHT22;41970;48.774;9.280;2023-02-28T09:40:21;1.20;96.80
56103;DHT22;41970;48.774;9.280;2023-02-28T09:42:50;1.20;97.70
56103;DHT22;41970;48.774;9.280;2023-02-28T09:45:30;1.20;96.90
56103;DHT22;41970;48.774;9.280;2023-02-28T09:48:04;0.90;96.90
56103;DHT22;41970;48.774;9.280;2023-02-28T09:50:38;0.90;96.80
56103;DHT22;41970;48.774;9.280;2023-02-28T09:53:34;1.00;96.90
56103;DHT22;41970;48.774;9.280;2023-02-28T09:56:37;1.00;97.20
56103;DHT22;41970;48.774;9.280;2023-02-28T10:04:00;1.40;96.90
56103;DHT22;41970;48.774;9.280;2023-02-28T10:06:33;1.40;96.20
56103;DHT22;41970;48.774;9.280;2023-02-28T10:09:29;1.30;96.30
56103;DHT22;41970;48.774;9.280;2023-02-28T10:12:00;1.30;96.30
56103;DHT22;41970;48.774;9.280;2023-02-28T10:14:30;1.50;96.80
56103;DHT22;41970;48.774;9.280;2023-02-28T10:17:10;1.70;96.20
56103;DHT22;41970;48.774;9.280;2023-02-28T10:22:37;2.00;96.20
56103;DHT22;41970;48.774;9.280;2023-02-28T10:25:22;2.20;95.90
56103;DHT22;41970;48.774;9.280;2023-02-28T10:27:50;2.10;95.00
56103;DHT22;41970;48.774;9.280;2023-02-28T10:30:19;1.70;95.10
56103;DHT22;41970;48.774;9.280;2023-02-28T10:32:50;1.80;95.80
56103;DHT22;41970;48.774;9.280;2023-02-28T10:35:19;2.00;95.50
56103;DHT22;41970;48.774;9.280;2023-02-28T10:37:50;2.10;95.40
56103;DHT22;41970;48.774;9.280;2023-02-28T10:43:00;1.90;95.10
56103;DHT22;41970;48.774;9.280;2023-02-28T10:45:28;2.10;95.60
56103;DHT22;41970;48.774;9.280;2023-02-28T10:48:04;2.20;95.30
56103;DHT22;41970;48.774;9.280;2023-02-28T10:53:34;1.80;94.80
56103;DHT22;41970;48.774;9.280;2023-02-28T11:01:24;1.70;95.20
56103;DHT22;41970;48.774;9.280;2023-02-28T11:03:51;1.70;95.30
56103;DHT22;41970;48.774;9.280;2023-02-28T11:06:32;1.70;95.40
56103;DHT22;41970;48.774;9.280;2023-02-28T11:09:04;1.70;95.40
56103;DHT22;41970;48.774;9.280;2023-02-28T11:11:43;1.80;95.30
56103;DHT22;41970;48.774;9.280;2023-02-28T11:14:30;1.80;95.10
56103;DHT22;41970;48.774;9.280;2023-02-28T11:17:02;1.80;95.30
56103;DHT22;41970;48.774;9.280;2023-02-28T11:19:37;2.00;95.60
56103;DHT22;41970;48.774;9.280;2023-02-28T11:22:05;2.20;96.20
56103;DHT22;41970;48.774;9.280;2023-02-28T11:24:35;2.50;95.60
56103;DHT22;41970;48.774;9.280;2023-02-28T11:27:03;2.70;94.80
56103;DHT22;41970;48.774;9.280;2023-02-28T11:29:31;2.80;94.90
56103;DHT22;41970;48.774;9.280;2023-02-28T11:34:36;3.20;95.10
56103;DHT22;41970;48.774;9.280;2023-02-28T11:37:03;3.40;94.10
56103;DHT22;41970;48.774;9.280;2023-02-28T11:39:33;3.50;94.40
56103;DHT22;41970;48.774;9.280;2023-02-28T11:45:21;3.70;93.00
56103;DHT22;41970;48.774;9.280;2023-02-28T11:48:09;3.50;92.90
56103;DHT22;41970;48.774;9.280;2023-02-28T11:51:05;3.50;93.00
56103;DHT22;41970;48.774;9.280;2023-02-28T12:02:30;3.70;94.00
56103;DHT22;41970;48.774;9.280;2023-02-28T12:10:57;4.10;92.70
56103;DHT22;41970;48.774;9.280;2023-02-28T12:13:40;4.10;92.10
56103;DHT22;41970;48.774;9.280;2023-02-28T12:21:46;4.00;92.00
56103;DHT22;41970;48.774;9.280;2023-02-28T12:24:27;3.90;92.10
56103;DHT22;41970;48.774;9.280;2023-02-28T12:26:58;3.90;92.40
56103;DHT22;41970;48.774;9.280;2023-02-28T12:29:49;4.00;93.40
56103;DHT22;41970;48.774;9.280;2023-02-28T12:32:29;4.00;92.20
56103;DHT22;41970;48.774;9.280;2023-02-28T12:35:23;3.90;91.30
56103;DHT22;41970;48.774;9.280;2023-02-28T12:37:52;3.70;91.50
56103;DHT22;41970;48.774;9.280;2023-02-28T12:40:22;3.70;91.60
56103;DHT22;41970;48.774;9.280;2023-02-28T12:42:56;3.70;91.70
56103;DHT22;41970;48.774;9.280;2023-02-28T12:45:44;3.80;91.90
56103;DHT22;41970;48.774;9.280;2023-02-28T12:48:15;3.90;91.70
56103;DHT22;41970;48.774;9.280;2023-02-28T12:50:45;4.00;91.50
56103;DHT22;41970;48.774;9.280;2023-02-28T12:59:23;4.00;91.30
56103;DHT22;41970;48.774;9.280;2023-02-28T13:02:09;4.00;91.40
56103;DHT22;41970;48.774;9.280;2023-02-28T13:10:03;4.70;91.60
56103;DHT22;41970;48.774;9.280;2023-02-28T13:12:31;4.90;91.10
56103;DHT22;41970;48.774;9.280;2023-02-28T13:15:08;5.10;91.10
56103;DHT22;41970;48.774;9.280;2023-02-28T13:17:39;5.00;90.10
56103;DHT22;41970;48.774;9.280;2023-02-28T13:20:16;4.70;90.40
56103;DHT22;41970;48.774;9.280;2023-02-28T13:22:45;4.70;90.60
56103;DHT22;41970;48.774;9.280;2023-02-28T13:28:00;5.00;90.70
56103;DHT22;41970;48.774;9.280;2023-02-28T13:33:35;5.40;90.80
56103;DHT22;41970;48.774;9.280;2023-02-28T13:38:41;5.50;91.00
56103;DHT22;41970;48.774;9.280;2023-02-28T13:44:16;5.70;91.00
56103;DHT22;41970;48.774;9.280;2023-02-28T13:47:16;5.90;90.00
56103;DHT22;41970;48.774;9.280;2023-02-28T13:49:35;6.10;89.50
56103;DHT22;41970;48.774;9.280;2023-02-28T14:00:35;6.00;87.60
56103;DHT22;41970;48.774;9.280;2023-02-28T14:03:58;6.10;88.70
56103;DHT22;41970;48.774;9.280;2023-02-28T14:11:33;5.90;86.90
56103;DHT22;41970;48.774;9.280;2023-02-28T14:14:00;5.70;87.50
56103;DHT22;41970;48.774;9.280;2023-02-28T14:16:35;5.40;87.10
56103;DHT22;41970;48.774;9.280;2023-02-28T14:21:34;5.40;88.40
56103;DHT22;41970;48.774;9.280;2023-02-28T14:37:56;6.00;86.90
56103;DHT22;41970;48.774;9.280;2023-02-28T14:40:29;5.50;86.00
56103;DHT22;41970;48.774;9.280;2023-02-28T14:43:00;5.40;88.40
56103;DHT22;41970;48.774;9.280;2023-02-28T14:45:31;5.60;89.10
56103;DHT22;41970;48.774;9.280;2023-02-28T14:47:58;5.80;88.50
56103;DHT22;41970;48.774;9.280;2023-02-28T14:50:30;6.00;88.70
56103;DHT22;41970;48.774;9.280;2023-02-28T14:52:57;6.10;87.80
56103;DHT22;41970;48.774;9.280;2023-02-28T14:55:30;6.00;86.00
56103;DHT22;41970;48.774;9.280;2023-02-28T14:57:58;5.70;85.90
56103;DHT22;41970;48.774;9.280;2023-02-28T15:00:36;5.30;86.70
56103;DHT22;41970;48.774;9.280;2023-02-28T15:03:37;5.30;87.90
56103;DHT22;41970;48.774;9.280;2023-02-28T15:06:15;5.30;87.00
56103;DHT22;41970;48.774;9.280;2023-02-28T15:08:43;5.20;86.80
56103;DHT22;41970;48.774;9.280;2023-02-28T15:11:16;5.10;87.50
56103;DHT22;41970;48.774;9.280;2023-02-28T15:13:52;5.00;87.60
56103;DHT22;41970;48.774;9.280;2023-02-28T15:16:23;5.00;88.00
56103;DHT22;41970;48.774;9.280;2023-02-28T15:18:59;5.10;88.30
56103;DHT22;41970;48.774;9.280;2023-02-28T15:21:29;5.30;89.30
56103;DHT22;41970;48.774;9.280;2023-02-28T15:24:13;5.40;88.70
56103;DHT22;41970;48.774;9.280;2023-02-28T15:26:46;5.10;87.20
56103;DHT22;41970;48.774;9.280;2023-02-28T15:29:19;5.00;87.50
56103;DHT22;41970;48.774;9.280;2023-02-28T15:31:57;5.10;88.60
56103;DHT22;41970;48.774;9.280;2023-02-28T15:34:42;5.00;88.00
56103;DHT22;41970;48.774;9.280;2023-02-28T15:39:58;5.20;89.30
56103;DHT22;41970;48.774;9.280;2023-02-28T15:42:28;5.00;88.40
56103;DHT22;41970;48.774;9.280;2023-02-28T15:44:54;4.90;88.40
56103;DHT22;41970;48.774;9.280;2023-02-28T15:47:23;5.00;89.40
56103;DHT22;41970;48.774;9.280;2023-02-28T15:49:55;4.90;89.80
56103;DHT22;41970;48.774;9.280;2023-02-28T15:52:43;5.00;89.60
56103;DHT22;41970;48.774;9.280;2023-02-28T15:55:24;4.90;89.60
56103;DHT22;41970;48.774;9.280;2023-02-28T15:57:55;5.00;90.00
56103;DHT22;41970;48.774;9.280;2023-02-28T16:00:28;5.10;90.50
56103;DHT22;41970;48.774;9.280;2023-02-28T16:02:54;5.10;90.50
56103;DHT22;41970;48.774;9.280;2023-02-28T16:05:28;5.10;89.30
56103;DHT22;41970;48.774;9.280;2023-02-28T16:08:08;4.90;89.50
56103;DHT22;41970;48.774;9.280;2023-02-28T16:10:36;4.90;90.50
56103;DHT22;41970;48.774;9.280;2023-02-28T16:13:02;5.00;91.00
56103;DHT22;41970;48.774;9.280;2023-02-28T16:15:31;5.10;90.00
56103;DHT22;41970;48.774;9.280;2023-02-28T16:18:00;5.10;90.60
56103;DHT22;41970;48.774;9.280;2023-02-28T16:20:28;5.20;90.30
56103;DHT22;41970;48.774;9.280;2023-02-28T16:22:54;5.30;90.30
56103;DHT22;41970;48.774;9.280;2023-02-28T16:25:28;5.40;90.10
56103;DHT22;41970;48.774;9.280;2023-02-28T16:27:55;5.50;90.00
56103;DHT22;41970;48.774;9.280;2023-02-28T16:30:27;5.40;90.30
56103;DHT22;41970;48.774;9.280;2023-02-28T16:32:54;5.50;90.30
56103;DHT22;41970;48.774;9.280;2023-02-28T16:35:21;5.40;88.40
56103;DHT22;41970;48.774;9.280;2023-02-28T16:37:48;5.20;89.30
56103;DHT22;41970;48.774;9.280;2023-02-28T16:40:17;5.30;90.10
56103;DHT22;41970;48.774;9.280;2023-02-28T16:42:45;5.30;90.40
56103;DHT22;41970;48.774;9.280;2023-02-28T16:45:20;5.40;90.00
56103;DHT22;41970;48.774;9.280;2023-02-28T16:47:47;5.30;89.40
56103;DHT22;41970;48.774;9.280;2023-02-28T16:50:22;5.30;90.20
56103;DHT22;41970;48.774;9.280;2023-02-28T16:52:48;5.40;90.10
56103;DHT22;41970;48.774;9.280;2023-02-28T16:55:15;5.40;90.20
56103;DHT22;41970;48.774;9.280;2023-02-28T16:57:41;5.40;90.30
56103;DHT22;41970;48.774;9.280;2023-02-28T17:00:12;5.40;90.30
56103;DHT22;41970;48.774;9.280;2023-02-28T17:02:39;5.30;90.40
56103;DHT22;41970;48.774;9.280;2023-02-28T17:05:05;5.20;90.30
56103;DHT22;41970;48.774;9.280;2023-02-28T17:07:32;5.20;90.90
56103;DHT22;41970;48.774;9.280;2023-02-28T17:09:58;5.20;90.70
56103;DHT22;41970;48.774;9.280;2023-02-28T17:12:24;5.20;90.70
56103;DHT22;41970;48.774;9.280;2023-02-28T17:14:50;5.20;90.60
56103;DHT22;41970;48.774;9.280;2023-02-28T17:17:19;5.10;90.80
56103;DHT22;41970;48.774;9.280;2023-02-28T17:19:46;5.10;90.60
56103;DHT22;41970;48.774;9.280;2023-02-28T17:22:12;5.00;91.00
56103;DHT22;41970;48.774;9.280;2023-02-28T17:24:38;4.90;90.90
56103;DHT22;41970;48.774;9.280;2023-02-28T17:27:04;4.90;90.90
56103;DHT22;41970;48.774;9.280;2023-02-28T17:29:29;4.80;90.80
56103;DHT22;41970;48.774;9.280;2023-02-28T17:31:55;4.80;91.10
56103;DHT22;41970;48.774;9.280;2023-02-28T17:34:21;4.60;90.90
56103;DHT22;41970;48.774;9.280;2023-02-28T17:36:49;4.60;91.00
56103;DHT22;41970;48.774;9.280;2023-02-28T17:39:18;4.50;91.20
56103;DHT22;41970;48.774;9.280;2023-02-28T17:41:54;4.30;91.60
56103;DHT22;41970;48.774;9.280;2023-02-28T17:44:22;4.00;92.10
56103;DHT22;41970;48.774;9.280;2023-02-28T17:46:49;3.70;92.70
56103;DHT22;41970;48.774;9.280;2023-02-28T17:49:19;3.40;93.10
56103;DHT22;41970;48.774;9.280;2023-02-28T17:51:46;3.30;93.60
56103;DHT22;41970;48.774;9.280;2023-02-28T17:54:12;3.00;94.00
56103;DHT22;41970;48.774;9.280;2023-02-28T17:56:39;2.90;94.40
56103;DHT22;41970;48.774;9.280;2023-02-28T17:59:05;2.70;94.70
56103;DHT22;41970;48.774;9.280;2023-02-28T18:01:31;2.50;95.10
56103;DHT22;41970;48.774;9.280;2023-02-28T18:03:57;2.30;95.40
56103;DHT22;41970;48.774;9.280;2023-02-28T18:06:25;2.10;95.80
56103;DHT22;41970;48.774;9.280;2023-02-28T18:08:53;2.00;96.30
56103;DHT22;41970;48.774;9.280;2023-02-28T18:11:20;1.90;96.60
56103;DHT22;41970;48.774;9.280;2023-02-28T18:13:51;1.80;96.80
56103;DHT22;41970;48.774;9.280;2023-02-28T18:16:18;1.70;97.00
56103;DHT22;41970;48.774;9.280;2023-02-28T18:18:45;1.70;97.10
56103;DHT22;41970;48.774;9.280;2023-02-28T18:21:13;1.60;97.30